CDT,Max TemperatureF,Mean TemperatureF,Min TemperatureF,Max Dew PointF,MeanDew PointF,Min DewpointF,Max Humidity, Mean Humidity, Min Humidity, Max Sea Level PressureIn, Mean Sea Level PressureIn, Min Sea Level PressureIn, Max VisibilityMiles, Mean VisibilityMiles, Min VisibilityMiles, Max Wind SpeedMPH, Mean Wind SpeedMPH, Max Gust SpeedMPH,PrecipitationIn, CloudCover, Events, WindDirDegrees
2013-3-1,31,25,19,21,20,15,84,74,63,30.37,30.28,30.20,10,9,3,21,13,24,T,8,Snow,340
2013-3-2,32,27,22,20,16,14,74,62,49,30.41,30.34,30.21,10,10,10,15,5,17,0.00,6,,347
2013-3-3,41,33,24,25,22,17,75,63,50,30.19,29.97,29.81,10,9,7,20,11,23,0.00,0,,143
2013-3-4,45,40,34,32,28,24,89,72,54,30.01,29.81,29.72,10,9,4,17,7,,T,3,,67
2013-3-5,35,31,27,29,20,16,89,73,56,30.38,30.22,30.04,10,10,10,35,21,43,0.00,6,,321
2013-3-6,37,28,19,21,18,13,81,67,52,30.48,30.41,30.33,10,10,10,23,6,28,0.00,3,,16
2013-3-7,48,36,23,27,22,17,81,62,42,30.34,30.27,30.18,10,10,10,16,8,21,0.00,0,,119
2013-3-8,54,43,31,38,31,25,75,61,46,30.25,30.14,29.98,10,10,8,18,10,24,T,4,Rain,118
2013-3-9,53,49,44,52,45,37,100,86,71,29.96,29.75,29.59,10,4,1,16,9,20,1.19,8,Rain,139
2013-3-10,51,40,28,50,36,23,96,87,78,29.91,29.73,29.57,10,5,0,32,19,38,T,8,Fog,348
2013-3-11,36,30,24,23,20,19,84,68,52,30.06,29.95,29.88,10,10,3,25,11,31,T,5,Snow,300
2013-3-12,44,33,21,27,22,18,92,70,48,30.36,30.21,30.04,10,10,9,30,12,39,0.00,3,,300
2013-3-13,43,32,20,23,19,17,84,60,36,30.51,30.42,30.34,10,10,10,12,4,16,0.00,2,,333
2013-3-14,71,52,32,38,30,22,79,53,27,30.32,30.15,30.06,10,10,8,13,7,18,0.00,0,,229
2013-3-15,82,56,29,43,35,27,92,55,18,30.08,29.83,29.65,10,8,1,22,7,29,0.00,0,,296
2013-3-16,48,41,33,41,31,24,85,71,57,30.14,30.00,29.78,10,9,4,28,16,32,0.00,7,,6
2013-3-17,42,36,29,30,26,21,82,68,53,30.13,29.95,29.79,10,10,7,22,12,25,T,7,,93
2013-3-18,52,39,26,34,27,14,96,62,28,30.10,29.87,29.76,10,7,2,31,13,44,0.02,5,Rain,315
2013-3-19,43,35,27,33,21,10,96,62,27,30.28,30.21,30.09,10,9,0,15,5,18,0.01,4,Fog,275
2013-3-20,39,28,17,27,11,4,78,52,25,30.44,30.32,30.17,10,9,1,22,11,33,0.00,1,,339
2013-3-21,34,27,19,18,13,8,62,52,41,30.14,30.05,29.96,10,10,10,14,7,18,0.00,7,,115
2013-3-22,39,35,31,25,20,16,64,54,44,30.05,30.01,29.97,10,10,9,13,6,17,T,8,,76
2013-3-23,42,37,31,32,27,21,92,69,45,30.09,30.00,29.94,10,6,0,22,11,26,0.06,8,Fog-Snow,33
2013-3-24,32,28,24,28,24,18,92,78,63,30.10,29.98,29.93,10,3,0,29,20,36,T,8,Fog-Snow,345
2013-3-25,33,29,24,27,23,18,85,77,69,30.37,30.19,30.05,10,5,2,26,17,31,T,8,Snow,323
2013-3-26,38,29,20,22,20,16,84,66,48,30.44,30.38,30.32,10,10,10,13,4,15,0.00,2,,297
2013-3-27,53,39,25,31,25,19,81,61,41,30.35,30.29,30.22,10,10,10,17,7,23,T,4,,121
2013-3-28,63,46,28,38,32,25,78,56,34,30.28,30.22,30.16,10,10,10,13,4,20,0.00,1,,89
2013-3-29,70,53,36,38,33,28,85,54,22,30.25,30.18,30.09,10,10,7,17,8,25,0.00,0,,114
2013-3-30,67,57,47,52,46,33,89,68,46,30.09,29.95,29.86,10,8,1,23,5,26,0.80,6,Rain-Thunderstorm,142
2013-3-31,62,52,42,45,37,26,86,57,27,30.05,29.97,29.95,10,10,7,23,10,35,0.00,2,,342